EDT,Max TemperatureF,Mean TemperatureF,Min TemperatureF,Max Dew PointF,MeanDew PointF,Min DewpointF,Max Humidity, Mean Humidity, Min Humidity, Max Sea Level PressureIn, Mean Sea Level PressureIn, Min Sea Level PressureIn, Max VisibilityMiles, Mean VisibilityMiles, Min VisibilityMiles, Max Wind SpeedMPH, Mean Wind SpeedMPH, Max Gust SpeedMPH,PrecipitationIn, CloudCover, Events, WindDirDegrees
2014-4-1,44,34,25,36,30,19,96,86,60,29.91,29.73,29.58,10,8,1,23,12,36,0.01,8,Rain-Snow,177
2014-4-2,31,26,21,24,19,14,92,76,69,30.25,30.11,29.92,10,10,4,23,15,31,0.00,4,Snow,272
2014-4-3,32,24,16,29,21,16,97,82,66,30.26,30.17,29.96,10,10,10,17,7,25,0.00,4,,78
2014-4-4,33,29,24,32,29,24,100,92,79,29.95,29.59,29.34,10,6,0,21,13,33,0.39,8,Snow,64
2014-4-5,30,25,20,25,22,18,96,86,71,30.09,29.96,29.61,10,10,5,17,12,28,0.03,5,Snow,268
2014-4-6,45,36,26,31,27,19,83,69,56,30.06,30.01,29.95,10,10,10,15,9,24,0.00,2,,228
2014-4-7,49,42,34,31,28,25,81,62,44,29.97,29.80,29.61,10,10,10,15,8,22,0.00,3,,124
2014-4-8,53,42,32,33,28,24,91,63,36,29.85,29.66,29.55,10,10,10,16,7,25,0.00,4,,323
2014-4-9,45,36,27,30,26,23,86,67,48,29.92,29.84,29.66,10,10,10,17,8,25,0.00,1,,246
2014-4-10,49,41,33,36,32,26,89,67,49,29.82,29.59,29.44,10,10,5,24,15,38,0.02,3,Rain-Snow,235
2014-4-11,49,39,29,32,26,23,87,64,38,30.00,29.94,29.83,10,10,10,14,6,23,0.00,2,,248
2014-4-12,38,36,33,35,33,32,100,92,81,30.14,30.04,29.90,10,9,2,16,9,25,0.08,5,Snow,90
2014-4-13,43,38,33,42,37,33,100,99,94,29.90,29.77,29.67,10,4,0,17,10,28,0.15,8,Fog-Snow,48
2014-4-14,34,28,22,35,29,21,100,96,87,29.89,29.64,29.39,10,5,0,21,14,34,0.95,8,Snow,344
2014-4-15,27,22,16,21,14,9,96,74,50,30.19,29.99,29.87,10,8,2,16,10,25,0.04,7,Snow,329
2014-4-16,31,22,12,31,18,9,99,77,52,30.39,30.32,30.20,10,9,2,13,5,20,0.00,3,Snow,124
2014-4-17,34,32,30,32,30,27,100,89,82,30.38,30.28,30.21,10,9,1,22,13,34,0.01,7,Snow,104
2014-4-18,37,34,29,31,29,27,99,87,73,30.42,30.31,30.22,10,9,5,14,8,18,0.00,6,,288
2014-4-19,39,32,26,32,29,26,100,86,58,30.51,30.41,30.27,10,8,0,18,7,28,0.00,2,Fog,84
2014-4-20,46,40,33,45,36,25,100,93,59,30.30,30.17,30.04,10,5,0,15,8,23,0.67,8,Fog-Rain-Snow,141
2014-4-21,44,40,36,43,40,36,100,97,90,30.04,29.87,29.74,10,4,0,16,8,22,0.05,8,Fog-Rain,115
2014-4-22,41,36,31,38,32,28,100,84,70,29.99,29.81,29.73,10,10,0,18,12,30,0.03,7,Fog,310
2014-4-23,46,37,28,28,24,16,88,65,31,30.14,30.10,30.00,10,10,10,17,7,23,0.00,0,,308
2014-4-24,45,37,29,31,26,20,82,67,37,30.16,30.09,29.92,10,10,7,17,6,29,0.00,4,Rain,84
2014-4-25,41,37,33,34,30,26,100,78,65,29.94,29.78,29.71,10,9,2,16,11,28,0.06,8,Snow,98
2014-4-26,44,38,32,36,31,22,100,82,54,30.17,29.96,29.76,10,8,1,10,7,16,0.07,6,Snow,354
2014-4-27,43,36,29,30,26,24,86,68,45,30.26,30.22,30.15,10,10,10,14,8,22,0.00,0,,86
2014-4-28,46,40,34,30,27,24,83,60,43,30.21,30.10,29.94,10,10,10,18,13,32,0.00,2,,91
2014-4-29,42,39,36,40,35,28,100,87,57,29.95,29.78,29.68,10,5,0,22,16,36,0.70,8,Fog-Rain-Snow,83
2014-4-30,40,38,36,40,37,36,100,100,100,29.80,29.78,29.74,2,0,0,17,13,29,0.44,8,Fog-Rain-Snow,91